sensor_id;sensor_type;location;lat;lon;timestamp;temperature;humidity
3842;DHT22;1936;47.074;15.336;2023-06-24T00:01:21;16.20;92.80
3842;DHT22;1936;47.074;15.336;2023-06-24T00:03:26;16.10;92.70
3842;DHT22;1936;47.074;15.336;2023-06-24T00:05:29;16.00;92.90
3842;DHT22;1936;47.074;15.336;2023-06-24T00:07:33;15.90;93.40
3842;DHT22;1936;47.074;15.336;2023-06-24T00:09:38;16.00;93.00
3842;DHT22;1936;47.074;15.336;2023-06-24T00:11:41;16.00;93.10
3842;DHT22;1936;47.074;15.336;2023-06-24T00:13:45;15.90;93.30
3842;DHT22;1936;47.074;15.336;2023-06-24T00:15:48;15.90;93.40
3842;DHT22;1936;47.074;15.336;2023-06-24T00:17:53;15.90;93.10
3842;DHT22;1936;47.074;15.336;2023-06-24T00:20:08;15.80;93.00
3842;DHT22;1936;47.074;15.336;2023-06-24T00:22:16;15.80;93.20
3842;DHT22;1936;47.074;15.336;2023-06-24T00:24:20;15.70;93.10
3842;DHT22;1936;47.074;15.336;2023-06-24T00:26:27;15.70;93.20
3842;DHT22;1936;47.074;15.336;2023-06-24T00:28:31;15.80;92.80
3842;DHT22;1936;47.074;15.336;2023-06-24T00:30:35;15.60;92.90
3842;DHT22;1936;47.074;15.336;2023-06-24T00:32:38;15.50;93.00
3842;DHT22;1936;47.074;15.336;2023-06-24T00:34:43;15.60;92.80
3842;DHT22;1936;47.074;15.336;2023-06-24T00:36:49;15.40;92.80
3842;DHT22;1936;47.074;15.336;2023-06-24T00:38:53;15.40;92.90
3842;DHT22;1936;47.074;15.336;2023-06-24T00:40:56;15.40;93.00
3842;DHT22;1936;47.074;15.336;2023-06-24T00:42:59;15.40;93.00
3842;DHT22;1936;47.074;15.336;2023-06-24T00:45:04;15.40;93.00
3842;DHT22;1936;47.074;15.336;2023-06-24T00:47:07;15.40;93.20
3842;DHT22;1936;47.074;15.336;2023-06-24T00:49:12;15.40;93.20
3842;DHT22;1936;47.074;15.336;2023-06-24T00:51:17;15.30;93.10
3842;DHT22;1936;47.074;15.336;2023-06-24T00:53:21;15.20;93.30
3842;DHT22;1936;47.074;15.336;2023-06-24T00:55:26;15.20;93.70
3842;DHT22;1936;47.074;15.336;2023-06-24T00:57:31;15.10;93.40
3842;DHT22;1936;47.074;15.336;2023-06-24T00:59:35;15.10;93.30
3842;DHT22;1936;47.074;15.336;2023-06-24T01:01:40;15.20;93.70
3842;DHT22;1936;47.074;15.336;2023-06-24T01:03:43;15.00;93.60
3842;DHT22;1936;47.074;15.336;2023-06-24T01:05:48;15.00;94.20
3842;DHT22;1936;47.074;15.336;2023-06-24T01:07:53;14.90;94.10
3842;DHT22;1936;47.074;15.336;2023-06-24T01:09:58;14.90;94.60
3842;DHT22;1936;47.074;15.336;2023-06-24T01:12:02;14.90;94.40
3842;DHT22;1936;47.074;15.336;2023-06-24T01:14:05;14.90;94.10
3842;DHT22;1936;47.074;15.336;2023-06-24T01:16:12;15.00;94.00
3842;DHT22;1936;47.074;15.336;2023-06-24T01:18:23;15.00;94.00
3842;DHT22;1936;47.074;15.336;2023-06-24T01:20:33;15.00;94.40
3842;DHT22;1936;47.074;15.336;2023-06-24T01:22:59;15.00;94.60
3842;DHT22;1936;47.074;15.336;2023-06-24T01:25:17;15.10;94.30
3842;DHT22;1936;47.074;15.336;2023-06-24T01:27:55;15.10;93.80
3842;DHT22;1936;47.074;15.336;2023-06-24T01:30:18;15.00;94.30
3842;DHT22;1936;47.074;15.336;2023-06-24T01:32:32;15.00;94.20
3842;DHT22;1936;47.074;15.336;2023-06-24T01:34:42;15.00;94.50
3842;DHT22;1936;47.074;15.336;2023-06-24T01:36:51;15.00;94.50
3842;DHT22;1936;47.074;15.336;2023-06-24T01:38:58;15.10;94.20
3842;DHT22;1936;47.074;15.336;2023-06-24T01:41:04;15.00;94.20
3842;DHT22;1936;47.074;15.336;2023-06-24T01:43:10;15.10;94.30
3842;DHT22;1936;47.074;15.336;2023-06-24T01:45:17;15.20;93.90
3842;DHT22;1936;47.074;15.336;2023-06-24T01:47:26;15.20;93.70
3842;DHT22;1936;47.074;15.336;2023-06-24T01:49:31;15.20;93.70
3842;DHT22;1936;47.074;15.336;2023-06-24T01:51:37;15.10;93.80
3842;DHT22;1936;47.074;15.336;2023-06-24T01:53:46;14.90;94.00
3842;DHT22;1936;47.074;15.336;2023-06-24T01:55:53;14.80;94.10
3842;DHT22;1936;47.074;15.336;2023-06-24T01:57:58;14.80;94.10
3842;DHT22;1936;47.074;15.336;2023-06-24T02:00:02;14.90;94.30
3842;DHT22;1936;47.074;15.336;2023-06-24T02:02:08;14.90;94.00
3842;DHT22;1936;47.074;15.336;2023-06-24T02:04:13;15.00;93.80
3842;DHT22;1936;47.074;15.336;2023-06-24T02:06:21;14.90;94.10
3842;DHT22;1936;47.074;15.336;2023-06-24T02:08:26;15.00;94.20
3842;DHT22;1936;47.074;15.336;2023-06-24T02:10:32;14.90;94.10
3842;DHT22;1936;47.074;15.336;2023-06-24T02:12:37;15.00;94.20
3842;DHT22;1936;47.074;15.336;2023-06-24T02:14:41;15.00;94.00
3842;DHT22;1936;47.074;15.336;2023-06-24T02:16:46;15.00;93.80
3842;DHT22;1936;47.074;15.336;2023-06-24T02:18:50;15.00;93.80
3842;DHT22;1936;47.074;15.336;2023-06-24T02:20:56;15.00;93.70
3842;DHT22;1936;47.074;15.336;2023-06-24T02:23:02;14.90;93.90
3842;DHT22;1936;47.074;15.336;2023-06-24T02:25:07;14.90;93.60
3842;DHT22;1936;47.074;15.336;2023-06-24T02:27:12;14.80;93.60
3842;DHT22;1936;47.074;15.336;2023-06-24T02:29:17;14.80;93.50
3842;DHT22;1936;47.074;15.336;2023-06-24T02:31:21;14.80;93.60
3842;DHT22;1936;47.074;15.336;2023-06-24T02:33:24;14.70;93.50
3842;DHT22;1936;47.074;15.336;2023-06-24T02:35:28;14.70;93.60
3842;DHT22;1936;47.074;15.336;2023-06-24T02:37:31;14.70;93.70
3842;DHT22;1936;47.074;15.336;2023-06-24T02:39:36;14.60;93.80
3842;DHT22;1936;47.074;15.336;2023-06-24T02:41:46;14.70;93.80
3842;DHT22;1936;47.074;15.336;2023-06-24T02:43:51;14.70;93.50
3842;DHT22;1936;47.074;15.336;2023-06-24T02:45:55;14.60;93.90
3842;DHT22;1936;47.074;15.336;2023-06-24T02:47:58;14.60;93.70
3842;DHT22;1936;47.074;15.336;2023-06-24T02:50:03;14.50;93.90
3842;DHT22;1936;47.074;15.336;2023-06-24T02:52:07;14.50;93.90
3842;DHT22;1936;47.074;15.336;2023-06-24T02:54:11;14.40;94.60
3842;DHT22;1936;47.074;15.336;2023-06-24T02:56:18;14.40;95.00
3842;DHT22;1936;47.074;15.336;2023-06-24T02:58:23;14.40;94.30
3842;DHT22;1936;47.074;15.336;2023-06-24T03:00:33;14.30;94.70
3842;DHT22;1936;47.074;15.336;2023-06-24T03:02:37;14.40;94.60
3842;DHT22;1936;47.074;15.336;2023-06-24T03:04:40;14.50;94.10
3842;DHT22;1936;47.074;15.336;2023-06-24T03:06:44;14.60;93.60
3842;DHT22;1936;47.074;15.336;2023-06-24T03:08:48;14.50;93.70
3842;DHT22;1936;47.074;15.336;2023-06-24T03:10:54;14.60;93.70
3842;DHT22;1936;47.074;15.336;2023-06-24T03:13:00;14.60;93.50
3842;DHT22;1936;47.074;15.336;2023-06-24T03:15:04;14.60;93.30
3842;DHT22;1936;47.074;15.336;2023-06-24T03:17:07;14.50;93.80
3842;DHT22;1936;47.074;15.336;2023-06-24T03:19:11;14.50;93.70
3842;DHT22;1936;47.074;15.336;2023-06-24T03:21:15;14.50;93.60
3842;DHT22;1936;47.074;15.336;2023-06-24T03:23:18;14.50;93.60
3842;DHT22;1936;47.074;15.336;2023-06-24T03:25:22;14.50;93.60
3842;DHT22;1936;47.074;15.336;2023-06-24T03:27:25;14.40;94.00
3842;DHT22;1936;47.074;15.336;2023-06-24T03:29:30;14.40;93.60
3842;DHT22;1936;47.074;15.336;2023-06-24T03:31:33;14.50;93.80
3842;DHT22;1936;47.074;15.336;2023-06-24T03:33:37;14.50;93.40
3842;DHT22;1936;47.074;15.336;2023-06-24T03:35:46;14.50;93.70
3842;DHT22;1936;47.074;15.336;2023-06-24T03:37:49;14.50;93.70
3842;DHT22;1936;47.074;15.336;2023-06-24T03:39:53;14.40;93.70
3842;DHT22;1936;47.074;15.336;2023-06-24T03:41:56;14.40;94.00
3842;DHT22;1936;47.074;15.336;2023-06-24T03:44:00;14.50;94.10
3842;DHT22;1936;47.074;15.336;2023-06-24T03:46:06;14.60;94.10
3842;DHT22;1936;47.074;15.336;2023-06-24T03:48:09;14.70;94.00
3842;DHT22;1936;47.074;15.336;2023-06-24T03:50:12;14.70;94.40
3842;DHT22;1936;47.074;15.336;2023-06-24T03:52:17;14.80;94.40
3842;DHT22;1936;47.074;15.336;2023-06-24T03:54:20;14.80;94.70
3842;DHT22;1936;47.074;15.336;2023-06-24T03:56:24;15.00;95.20
3842;DHT22;1936;47.074;15.336;2023-06-24T03:58:27;15.20;94.70
3842;DHT22;1936;47.074;15.336;2023-06-24T04:00:31;15.30;94.10
3842;DHT22;1936;47.074;15.336;2023-06-24T04:02:35;15.30;94.40
3842;DHT22;1936;47.074;15.336;2023-06-24T04:04:39;15.50;94.60
3842;DHT22;1936;47.074;15.336;2023-06-24T04:06:42;15.60;94.20
3842;DHT22;1936;47.074;15.336;2023-06-24T04:08:45;15.70;94.20
3842;DHT22;1936;47.074;15.336;2023-06-24T04:10:51;15.80;94.10
3842;DHT22;1936;47.074;15.336;2023-06-24T04:12:54;15.90;94.00
3842;DHT22;1936;47.074;15.336;2023-06-24T04:14:58;16.10;93.90
3842;DHT22;1936;47.074;15.336;2023-06-24T04:17:01;16.20;93.80
3842;DHT22;1936;47.074;15.336;2023-06-24T04:19:06;16.50;93.40
3842;DHT22;1936;47.074;15.336;2023-06-24T04:21:09;16.50;93.00
3842;DHT22;1936;47.074;15.336;2023-06-24T04:23:13;16.50;93.20
3842;DHT22;1936;47.074;15.336;2023-06-24T04:25:17;16.60;93.40
3842;DHT22;1936;47.074;15.336;2023-06-24T04:27:20;16.90;92.90
3842;DHT22;1936;47.074;15.336;2023-06-24T04:29:24;17.00;92.60
3842;DHT22;1936;47.074;15.336;2023-06-24T04:31:27;16.70;92.80
3842;DHT22;1936;47.074;15.336;2023-06-24T04:33:31;16.60;93.50
3842;DHT22;1936;47.074;15.336;2023-06-24T04:35:36;16.70;93.90
3842;DHT22;1936;47.074;15.336;2023-06-24T04:37:39;16.90;93.50
3842;DHT22;1936;47.074;15.336;2023-06-24T04:39:43;17.20;93.20
3842;DHT22;1936;47.074;15.336;2023-06-24T04:41:47;17.20;92.90
3842;DHT22;1936;47.074;15.336;2023-06-24T04:43:50;17.10;92.90
3842;DHT22;1936;47.074;15.336;2023-06-24T04:45:54;17.20;93.40
3842;DHT22;1936;47.074;15.336;2023-06-24T04:47:58;17.30;93.70
3842;DHT22;1936;47.074;15.336;2023-06-24T04:50:02;17.50;93.20
3842;DHT22;1936;47.074;15.336;2023-06-24T04:52:08;17.80;92.50
3842;DHT22;1936;47.074;15.336;2023-06-24T04:54:11;17.70;92.40
3842;DHT22;1936;47.074;15.336;2023-06-24T04:56:15;17.90;92.20
3842;DHT22;1936;47.074;15.336;2023-06-24T04:58:18;18.00;91.70
3842;DHT22;1936;47.074;15.336;2023-06-24T05:00:22;18.00;92.20
3842;DHT22;1936;47.074;15.336;2023-06-24T05:02:27;18.20;91.70
3842;DHT22;1936;47.074;15.336;2023-06-24T05:04:30;18.00;92.00
3842;DHT22;1936;47.074;15.336;2023-06-24T05:06:34;18.20;92.30
3842;DHT22;1936;47.074;15.336;2023-06-24T05:08:38;18.10;91.90
3842;DHT22;1936;47.074;15.336;2023-06-24T05:10:42;18.40;91.80
3842;DHT22;1936;47.074;15.336;2023-06-24T05:12:45;18.50;91.50
3842;DHT22;1936;47.074;15.336;2023-06-24T05:14:50;18.50;91.50
3842;DHT22;1936;47.074;15.336;2023-06-24T05:16:54;18.70;91.30
3842;DHT22;1936;47.074;15.336;2023-06-24T05:18:57;18.70;91.10
3842;DHT22;1936;47.074;15.336;2023-06-24T05:21:01;18.70;90.90
3842;DHT22;1936;47.074;15.336;2023-06-24T05:23:04;18.50;91.70
3842;DHT22;1936;47.074;15.336;2023-06-24T05:25:10;18.30;91.60
3842;DHT22;1936;47.074;15.336;2023-06-24T05:27:13;18.40;91.80
3842;DHT22;1936;47.074;15.336;2023-06-24T05:29:17;18.60;91.30
3842;DHT22;1936;47.074;15.336;2023-06-24T05:31:20;18.70;91.40
3842;DHT22;1936;47.074;15.336;2023-06-24T05:33:24;18.80;90.90
3842;DHT22;1936;47.074;15.336;2023-06-24T05:35:28;18.70;90.90
3842;DHT22;1936;47.074;15.336;2023-06-24T05:37:31;18.50;91.70
3842;DHT22;1936;47.074;15.336;2023-06-24T05:39:34;18.50;92.00
3842;DHT22;1936;47.074;15.336;2023-06-24T05:41:39;18.80;92.00
3842;DHT22;1936;47.074;15.336;2023-06-24T05:43:43;18.90;91.80
3842;DHT22;1936;47.074;15.336;2023-06-24T05:45:47;19.20;90.90
3842;DHT22;1936;47.074;15.336;2023-06-24T05:47:50;19.20;90.80
3842;DHT22;1936;47.074;15.336;2023-06-24T05:49:54;19.00;91.50
3842;DHT22;1936;47.074;15.336;2023-06-24T05:51:58;19.20;91.30
3842;DHT22;1936;47.074;15.336;2023-06-24T05:54:01;19.10;91.40
3842;DHT22;1936;47.074;15.336;2023-06-24T05:56:05;19.20;90.90
3842;DHT22;1936;47.074;15.336;2023-06-24T05:58:09;19.10;90.60
3842;DHT22;1936;47.074;15.336;2023-06-24T06:00:13;19.30;90.70
3842;DHT22;1936;47.074;15.336;2023-06-24T06:02:17;19.30;90.90
3842;DHT22;1936;47.074;15.336;2023-06-24T06:04:20;19.30;90.90
3842;DHT22;1936;47.074;15.336;2023-06-24T06:06:24;19.40;90.60
3842;DHT22;1936;47.074;15.336;2023-06-24T06:08:28;19.60;90.60
3842;DHT22;1936;47.074;15.336;2023-06-24T06:10:32;19.70;90.80
3842;DHT22;1936;47.074;15.336;2023-06-24T06:12:35;19.70;91.00
3842;DHT22;1936;47.074;15.336;2023-06-24T06:14:40;19.80;91.10
3842;DHT22;1936;47.074;15.336;2023-06-24T06:16:43;19.90;90.80
3842;DHT22;1936;47.074;15.336;2023-06-24T06:18:47;19.90;90.70
3842;DHT22;1936;47.074;15.336;2023-06-24T06:20:51;20.00;90.60
3842;DHT22;1936;47.074;15.336;2023-06-24T06:22:54;20.10;90.60
3842;DHT22;1936;47.074;15.336;2023-06-24T06:24:57;20.10;90.80
3842;DHT22;1936;47.074;15.336;2023-06-24T06:27:01;20.30;90.90
3842;DHT22;1936;47.074;15.336;2023-06-24T06:29:04;20.20;91.00
3842;DHT22;1936;47.074;15.336;2023-06-24T06:31:08;20.70;91.90
3842;DHT22;1936;47.074;15.336;2023-06-24T06:33:12;21.20;90.90
3842;DHT22;1936;47.074;15.336;2023-06-24T06:35:15;21.50;90.20
3842;DHT22;1936;47.074;15.336;2023-06-24T06:37:18;21.90;89.60
3842;DHT22;1936;47.074;15.336;2023-06-24T06:39:22;22.30;88.80
3842;DHT22;1936;47.074;15.336;2023-06-24T06:41:25;22.50;82.80
3842;DHT22;1936;47.074;15.336;2023-06-24T06:43:29;22.30;73.00
3842;DHT22;1936;47.074;15.336;2023-06-24T06:45:32;22.00;73.30
3842;DHT22;1936;47.074;15.336;2023-06-24T06:47:37;21.90;78.70
3842;DHT22;1936;47.074;15.336;2023-06-24T06:49:40;21.90;76.40
3842;DHT22;1936;47.074;15.336;2023-06-24T06:51:44;22.20;78.80
3842;DHT22;1936;47.074;15.336;2023-06-24T06:53:47;22.00;72.00
3842;DHT22;1936;47.074;15.336;2023-06-24T06:55:51;22.30;68.00
3842;DHT22;1936;47.074;15.336;2023-06-24T06:57:54;22.50;72.20
3842;DHT22;1936;47.074;15.336;2023-06-24T06:59:58;22.80;68.40
3842;DHT22;1936;47.074;15.336;2023-06-24T07:02:01;22.80;66.60
3842;DHT22;1936;47.074;15.336;2023-06-24T07:04:06;23.00;70.10
3842;DHT22;1936;47.074;15.336;2023-06-24T07:06:09;23.10;69.60
3842;DHT22;1936;47.074;15.336;2023-06-24T07:08:12;23.10;68.50
3842;DHT22;1936;47.074;15.336;2023-06-24T07:10:16;23.00;65.40
3842;DHT22;1936;47.074;15.336;2023-06-24T07:12:20;23.00;68.90
3842;DHT22;1936;47.074;15.336;2023-06-24T07:14:25;23.00;66.70
3842;DHT22;1936;47.074;15.336;2023-06-24T07:16:29;22.70;69.60
3842;DHT22;1936;47.074;15.336;2023-06-24T07:18:32;22.50;68.80
3842;DHT22;1936;47.074;15.336;2023-06-24T07:20:37;22.60;71.10
3842;DHT22;1936;47.074;15.336;2023-06-24T07:22:43;22.70;74.00
3842;DHT22;1936;47.074;15.336;2023-06-24T07:24:46;22.60;73.90
3842;DHT22;1936;47.074;15.336;2023-06-24T07:26:50;22.70;72.60
3842;DHT22;1936;47.074;15.336;2023-06-24T07:28:56;22.50;72.40
3842;DHT22;1936;47.074;15.336;2023-06-24T07:31:09;22.30;75.10
3842;DHT22;1936;47.074;15.336;2023-06-24T07:33:13;22.50;76.00
3842;DHT22;1936;47.074;15.336;2023-06-24T07:35:16;22.30;75.70
3842;DHT22;1936;47.074;15.336;2023-06-24T07:37:22;22.00;68.50
3842;DHT22;1936;47.074;15.336;2023-06-24T07:39:26;21.90;73.90
3842;DHT22;1936;47.074;15.336;2023-06-24T07:41:29;21.90;74.50
3842;DHT22;1936;47.074;15.336;2023-06-24T07:43:32;21.80;76.40
3842;DHT22;1936;47.074;15.336;2023-06-24T07:45:36;21.80;78.10
3842;DHT22;1936;47.074;15.336;2023-06-24T07:47:39;21.90;76.60
3842;DHT22;1936;47.074;15.336;2023-06-24T07:49:42;22.10;77.40
3842;DHT22;1936;47.074;15.336;2023-06-24T07:51:46;22.30;76.60
3842;DHT22;1936;47.074;15.336;2023-06-24T07:53:51;22.40;75.50
3842;DHT22;1936;47.074;15.336;2023-06-24T07:55:54;22.20;72.70
3842;DHT22;1936;47.074;15.336;2023-06-24T07:57:57;22.30;74.70
3842;DHT22;1936;47.074;15.336;2023-06-24T08:00:01;22.30;75.30
3842;DHT22;1936;47.074;15.336;2023-06-24T08:02:05;22.40;69.50
3842;DHT22;1936;47.074;15.336;2023-06-24T08:04:09;22.30;66.70
3842;DHT22;1936;47.074;15.336;2023-06-24T08:06:12;22.20;71.50
3842;DHT22;1936;47.074;15.336;2023-06-24T08:08:16;22.20;73.40
3842;DHT22;1936;47.074;15.336;2023-06-24T08:10:23;22.30;68.20
3842;DHT22;1936;47.074;15.336;2023-06-24T08:12:26;22.20;67.50
3842;DHT22;1936;47.074;15.336;2023-06-24T08:14:29;22.40;71.30
3842;DHT22;1936;47.074;15.336;2023-06-24T08:16:33;22.40;69.80
3842;DHT22;1936;47.074;15.336;2023-06-24T08:18:36;22.50;70.90
3842;DHT22;1936;47.074;15.336;2023-06-24T08:20:41;22.40;71.70
3842;DHT22;1936;47.074;15.336;2023-06-24T08:22:45;22.50;71.40
3842;DHT22;1936;47.074;15.336;2023-06-24T08:24:49;22.60;72.00
3842;DHT22;1936;47.074;15.336;2023-06-24T08:26:54;22.40;73.00
3842;DHT22;1936;47.074;15.336;2023-06-24T08:28:58;22.50;72.70
3842;DHT22;1936;47.074;15.336;2023-06-24T08:31:05;22.80;74.90
3842;DHT22;1936;47.074;15.336;2023-06-24T08:33:08;22.70;73.10
3842;DHT22;1936;47.074;15.336;2023-06-24T08:35:12;23.10;67.80
3842;DHT22;1936;47.074;15.336;2023-06-24T08:37:15;23.00;62.20
3842;DHT22;1936;47.074;15.336;2023-06-24T08:39:18;23.00;61.50
3842;DHT22;1936;47.074;15.336;2023-06-24T08:41:23;23.30;63.50
3842;DHT22;1936;47.074;15.336;2023-06-24T08:43:28;23.50;64.20
3842;DHT22;1936;47.074;15.336;2023-06-24T08:45:32;23.60;65.90
3842;DHT22;1936;47.074;15.336;2023-06-24T08:47:36;24.20;65.20
3842;DHT22;1936;47.074;15.336;2023-06-24T08:49:46;24.30;63.60
3842;DHT22;1936;47.074;15.336;2023-06-24T08:51:53;24.10;64.80
3842;DHT22;1936;47.074;15.336;2023-06-24T08:53:58;24.40;63.30
3842;DHT22;1936;47.074;15.336;2023-06-24T08:56:02;24.40;59.20
3842;DHT22;1936;47.074;15.336;2023-06-24T08:58:07;24.60;63.40
3842;DHT22;1936;47.074;15.336;2023-06-24T09:00:12;24.70;56.90
3842;DHT22;1936;47.074;15.336;2023-06-24T09:02:16;24.50;56.80
3842;DHT22;1936;47.074;15.336;2023-06-24T09:04:20;24.90;60.30
3842;DHT22;1936;47.074;15.336;2023-06-24T09:06:23;25.00;57.80
3842;DHT22;1936;47.074;15.336;2023-06-24T09:08:26;25.10;56.50
3842;DHT22;1936;47.074;15.336;2023-06-24T09:10:31;24.80;56.20
3842;DHT22;1936;47.074;15.336;2023-06-24T09:12:34;25.20;59.40
3842;DHT22;1936;47.074;15.336;2023-06-24T09:14:38;25.70;58.30
3842;DHT22;1936;47.074;15.336;2023-06-24T09:16:51;25.60;54.70
3842;DHT22;1936;47.074;15.336;2023-06-24T09:18:54;25.80;56.30
3842;DHT22;1936;47.074;15.336;2023-06-24T09:20:58;26.10;54.10
3842;DHT22;1936;47.074;15.336;2023-06-24T09:23:04;26.80;51.30
3842;DHT22;1936;47.074;15.336;2023-06-24T09:25:07;27.40;50.00
3842;DHT22;1936;47.074;15.336;2023-06-24T09:27:12;27.70;49.70
3842;DHT22;1936;47.074;15.336;2023-06-24T09:29:15;28.00;46.80
3842;DHT22;1936;47.074;15.336;2023-06-24T09:31:19;28.30;49.70
3842;DHT22;1936;47.074;15.336;2023-06-24T09:33:27;28.00;47.00
3842;DHT22;1936;47.074;15.336;2023-06-24T09:35:35;27.60;48.70
3842;DHT22;1936;47.074;15.336;2023-06-24T09:37:39;27.60;49.70
3842;DHT22;1936;47.074;15.336;2023-06-24T09:39:43;28.90;52.60
3842;DHT22;1936;47.074;15.336;2023-06-24T09:41:51;30.00;45.00
3842;DHT22;1936;47.074;15.336;2023-06-24T09:43:58;30.30;45.40
3842;DHT22;1936;47.074;15.336;2023-06-24T09:46:01;31.20;46.90
3842;DHT22;1936;47.074;15.336;2023-06-24T09:48:05;31.40;41.10
3842;DHT22;1936;47.074;15.336;2023-06-24T09:50:10;31.80;43.80
3842;DHT22;1936;47.074;15.336;2023-06-24T09:52:14;30.70;40.10
3842;DHT22;1936;47.074;15.336;2023-06-24T09:54:19;29.90;45.00
3842;DHT22;1936;47.074;15.336;2023-06-24T09:56:23;29.50;47.30
3842;DHT22;1936;47.074;15.336;2023-06-24T09:58:27;30.10;48.10
3842;DHT22;1936;47.074;15.336;2023-06-24T10:00:31;30.50;43.00
3842;DHT22;1936;47.074;15.336;2023-06-24T10:02:36;30.50;42.60
3842;DHT22;1936;47.074;15.336;2023-06-24T10:04:39;31.70;44.10
3842;DHT22;1936;47.074;15.336;2023-06-24T10:06:45;32.60;38.20
3842;DHT22;1936;47.074;15.336;2023-06-24T10:08:49;33.20;41.10
3842;DHT22;1936;47.074;15.336;2023-06-24T10:10:53;32.90;42.30
3842;DHT22;1936;47.074;15.336;2023-06-24T10:12:57;32.20;41.50
3842;DHT22;1936;47.074;15.336;2023-06-24T10:15:01;30.90;37.60
3842;DHT22;1936;47.074;15.336;2023-06-24T10:17:04;29.90;41.60
3842;DHT22;1936;47.074;15.336;2023-06-24T10:19:08;30.00;44.20
3842;DHT22;1936;47.074;15.336;2023-06-24T10:21:12;29.70;41.40
3842;DHT22;1936;47.074;15.336;2023-06-24T10:23:17;29.60;43.70
3842;DHT22;1936;47.074;15.336;2023-06-24T10:25:20;29.50;45.30
3842;DHT22;1936;47.074;15.336;2023-06-24T10:27:24;29.50;43.00
3842;DHT22;1936;47.074;15.336;2023-06-24T10:29:33;28.80;45.20
3842;DHT22;1936;47.074;15.336;2023-06-24T10:31:55;28.70;44.50
3842;DHT22;1936;47.074;15.336;2023-06-24T10:33:59;28.00;43.50
3842;DHT22;1936;47.074;15.336;2023-06-24T10:36:02;27.80;45.10
3842;DHT22;1936;47.074;15.336;2023-06-24T10:38:10;27.90;46.60
3842;DHT22;1936;47.074;15.336;2023-06-24T10:40:34;27.90;45.80
3842;DHT22;1936;47.074;15.336;2023-06-24T10:42:38;27.70;45.10
3842;DHT22;1936;47.074;15.336;2023-06-24T10:44:47;27.50;46.30
3842;DHT22;1936;47.074;15.336;2023-06-24T10:46:53;27.00;47.20
3842;DHT22;1936;47.074;15.336;2023-06-24T10:48:57;27.10;47.40
3842;DHT22;1936;47.074;15.336;2023-06-24T10:51:00;27.40;46.20
3842;DHT22;1936;47.074;15.336;2023-06-24T10:53:08;27.30;45.70
3842;DHT22;1936;47.074;15.336;2023-06-24T10:55:15;26.80;46.50
3842;DHT22;1936;47.074;15.336;2023-06-24T10:57:23;26.60;46.20
3842;DHT22;1936;47.074;15.336;2023-06-24T10:59:27;26.30;47.80
3842;DHT22;1936;47.074;15.336;2023-06-24T11:01:30;26.20;48.40
3842;DHT22;1936;47.074;15.336;2023-06-24T11:03:34;25.90;48.80
3842;DHT22;1936;47.074;15.336;2023-06-24T11:05:42;26.00;51.10
3842;DHT22;1936;47.074;15.336;2023-06-24T11:07:46;26.40;49.20
3842;DHT22;1936;47.074;15.336;2023-06-24T11:09:50;26.00;48.40
3842;DHT22;1936;47.074;15.336;2023-06-24T11:11:55;26.30;53.00
3842;DHT22;1936;47.074;15.336;2023-06-24T11:13:59;26.10;50.00
3842;DHT22;1936;47.074;15.336;2023-06-24T11:16:02;26.00;49.70
3842;DHT22;1936;47.074;15.336;2023-06-24T11:18:08;25.90;50.30
3842;DHT22;1936;47.074;15.336;2023-06-24T11:20:13;26.00;49.20
3842;DHT22;1936;47.074;15.336;2023-06-24T11:22:16;26.10;50.50
3842;DHT22;1936;47.074;15.336;2023-06-24T11:24:22;25.90;49.50
3842;DHT22;1936;47.074;15.336;2023-06-24T11:26:25;25.60;50.50
3842;DHT22;1936;47.074;15.336;2023-06-24T11:28:32;25.50;49.10
3842;DHT22;1936;47.074;15.336;2023-06-24T11:30:36;25.20;51.20
3842;DHT22;1936;47.074;15.336;2023-06-24T11:32:41;25.10;50.60
3842;DHT22;1936;47.074;15.336;2023-06-24T11:34:46;24.90;50.60
3842;DHT22;1936;47.074;15.336;2023-06-24T11:36:49;25.10;51.10
3842;DHT22;1936;47.074;15.336;2023-06-24T11:38:52;25.20;51.60
3842;DHT22;1936;47.074;15.336;2023-06-24T11:40:57;25.10;52.30
3842;DHT22;1936;47.074;15.336;2023-06-24T11:43:01;25.10;51.70
3842;DHT22;1936;47.074;15.336;2023-06-24T11:45:08;24.70;50.30
3842;DHT22;1936;47.074;15.336;2023-06-24T11:47:16;24.50;51.80
3842;DHT22;1936;47.074;15.336;2023-06-24T11:49:26;24.70;50.50
3842;DHT22;1936;47.074;15.336;2023-06-24T11:51:29;24.90;51.90
3842;DHT22;1936;47.074;15.336;2023-06-24T11:53:41;25.00;51.20
3842;DHT22;1936;47.074;15.336;2023-06-24T11:55:52;24.80;50.50
3842;DHT22;1936;47.074;15.336;2023-06-24T11:57:56;24.70;52.00
3842;DHT22;1936;47.074;15.336;2023-06-24T12:00:00;24.60;49.60
3842;DHT22;1936;47.074;15.336;2023-06-24T12:02:06;24.30;52.60
3842;DHT22;1936;47.074;15.336;2023-06-24T12:04:10;24.20;51.70
3842;DHT22;1936;47.074;15.336;2023-06-24T12:06:14;24.60;54.20
3842;DHT22;1936;47.074;15.336;2023-06-24T12:08:18;24.60;50.70
3842;DHT22;1936;47.074;15.336;2023-06-24T12:10:22;24.90;53.90
3842;DHT22;1936;47.074;15.336;2023-06-24T12:12:25;24.80;50.70
3842;DHT22;1936;47.074;15.336;2023-06-24T12:14:28;24.90;51.10
3842;DHT22;1936;47.074;15.336;2023-06-24T12:16:31;24.60;50.30
3842;DHT22;1936;47.074;15.336;2023-06-24T12:18:36;24.30;52.20
3842;DHT22;1936;47.074;15.336;2023-06-24T12:20:39;24.20;49.70
3842;DHT22;1936;47.074;15.336;2023-06-24T12:22:43;24.00;52.10
3842;DHT22;1936;47.074;15.336;2023-06-24T12:24:47;23.50;51.70
3842;DHT22;1936;47.074;15.336;2023-06-24T12:26:51;23.50;53.50
3842;DHT22;1936;47.074;15.336;2023-06-24T12:28:54;23.80;53.70
3842;DHT22;1936;47.074;15.336;2023-06-24T12:30:59;23.90;52.90
3842;DHT22;1936;47.074;15.336;2023-06-24T12:33:02;24.00;51.50
3842;DHT22;1936;47.074;15.336;2023-06-24T12:35:09;24.00;52.30
3842;DHT22;1936;47.074;15.336;2023-06-24T12:37:12;23.90;52.60
3842;DHT22;1936;47.074;15.336;2023-06-24T12:39:15;23.80;52.50
3842;DHT22;1936;47.074;15.336;2023-06-24T12:41:21;23.90;54.20
3842;DHT22;1936;47.074;15.336;2023-06-24T12:43:25;23.60;53.50
3842;DHT22;1936;47.074;15.336;2023-06-24T12:45:28;23.30;53.40
3842;DHT22;1936;47.074;15.336;2023-06-24T12:47:32;23.20;53.70
3842;DHT22;1936;47.074;15.336;2023-06-24T12:49:36;22.90;53.40
3842;DHT22;1936;47.074;15.336;2023-06-24T12:51:41;22.80;54.70
3842;DHT22;1936;47.074;15.336;2023-06-24T12:53:44;23.00;56.00
3842;DHT22;1936;47.074;15.336;2023-06-24T12:55:48;22.70;55.60
3842;DHT22;1936;47.074;15.336;2023-06-24T12:57:52;22.80;55.30
3842;DHT22;1936;47.074;15.336;2023-06-24T12:59:55;22.60;54.30
3842;DHT22;1936;47.074;15.336;2023-06-24T13:01:59;22.50;55.20
3842;DHT22;1936;47.074;15.336;2023-06-24T13:04:02;22.60;56.00
3842;DHT22;1936;47.074;15.336;2023-06-24T13:06:06;22.50;55.40
3842;DHT22;1936;47.074;15.336;2023-06-24T13:08:10;22.70;54.60
3842;DHT22;1936;47.074;15.336;2023-06-24T13:10:14;22.60;54.90
3842;DHT22;1936;47.074;15.336;2023-06-24T13:12:17;22.60;55.00
3842;DHT22;1936;47.074;15.336;2023-06-24T13:14:20;22.70;55.50
3842;DHT22;1936;47.074;15.336;2023-06-24T13:16:24;22.70;54.40
3842;DHT22;1936;47.074;15.336;2023-06-24T13:18:27;22.90;54.80
3842;DHT22;1936;47.074;15.336;2023-06-24T13:20:30;22.80;54.50